KLHB

Hearne Municipal Airport

Hearne, Texas, USA
METAR KLHB 260355Z AUTO 00000KT 10SM CLR 26/20 A2990 RMK AO2 T02600195
Observed Flight Rules
May-26 @ 03:55 UTC (24 minutes ago) Visual Flight Rules
Visibility Clouds
10 miles
  • Clear skies
Temperatures Readings
Current 26°C / 79°F
Dewpoint 20°C / 68°F
Humidity 70%
Altimeter 29.9" Hg
Pressure 1013 hPa
Elevation 87
METAR KLHB 260355Z AUTO 00000KT 10SM CLR 26/20 A2990 RMK AO2 T02600195
Observed Flight Rules
May-26 @ 03:55 UTC
(24 minutes ago)
VFR
Clouds
  • Clear skies
Temperature Dewpoint
26°C / 79°F 20°C / 68°F
Humidity Altimeter Pressure
70% 29.9" Hg 1013 hPa